Time;durP1;ratioP1;P1;durP2;ratioP2;P2;SDS_P1;SDS_P2;PMS_P1;PMS_P2;Temp;Humidity;BMP_temperature;BMP_pressure;BME280_temperature;BME280_humidity;BME280_pressure;Samples;Min_cycle;Max_cycle;Signal;HPM_P1;HPM_P2
2023/04/02 04:31:30;;;;;;;7.20;3.00;;;12.10;79.60;;;;;;5520935;23;20116;-76
2023/04/02 04:34:03;;;;;;;12.98;3.35;;;12.10;79.60;;;;;;4972346;28;20082;-76
2023/04/02 04:36:46;;;;;;;9.68;4.28;;;12.00;79.70;;;;;;4979187;28;20046;-76
2023/04/02 04:39:16;;;;;;;7.85;3.38;;;12.00;79.80;;;;;;4978494;28;20109;-76
2023/04/02 04:41:44;;;;;;;10.95;3.85;;;12.00;79.70;;;;;;4979308;28;20102;-76
2023/04/02 04:44:39;;;;;;;10.27;2.97;;;12.10;79.50;;;;;;4958481;29;20035;-76
2023/04/02 04:47:19;;;;;;;7.75;3.15;;;12.10;79.50;;;;;;4942232;29;20839;-76
2023/04/02 04:49:51;;;;;;;13.97;3.87;;;12.10;79.50;;;;;;4959888;29;20086;-76
2023/04/02 04:52:21;;;;;;;8.15;3.55;;;12.10;79.40;;;;;;4942495;29;20275;-76
2023/04/02 04:54:47;;;;;;;4.53;3.25;;;12.10;79.40;;;;;;4942315;29;20028;-76
2023/04/02 04:57:37;;;;;;;9.15;3.40;;;12.00;79.30;;;;;;4966993;28;20031;-76
2023/04/02 05:00:29;;;;;;;10.27;3.05;;;12.00;79.50;;;;;;4967314;28;20038;-77
2023/04/02 05:03:22;;;;;;;11.15;3.13;;;12.00;79.40;;;;;;4975728;28;20035;-76
2023/04/02 05:05:49;;;;;;;8.43;2.92;;;12.00;79.40;;;;;;4974921;28;20486;-76
2023/04/02 05:08:25;;;;;;;5.00;2.60;;;12.00;79.40;;;;;;4970512;28;20035;-76
2023/04/02 05:11:00;;;;;;;9.13;3.30;;;11.90;79.40;;;;;;4964315;28;20042;-76
2023/04/02 05:13:38;;;;;;;10.35;3.33;;;11.90;79.40;;;;;;4963526;28;20060;-76
2023/04/02 05:16:30;;;;;;;5.55;2.95;;;11.90;79.50;;;;;;4959699;29;20020;-76
2023/04/02 05:19:40;;;;;;;5.47;3.20;;;11.90;79.30;;;;;;4960133;28;20042;-76
2023/04/02 05:22:20;;;;;;;6.78;3.22;;;11.90;79.30;;;;;;4949023;28;20035;-76
2023/04/02 05:24:50;;;;;;;9.30;2.60;;;11.90;79.30;;;;;;4973306;28;20031;-76
2023/04/02 05:27:45;;;;;;;5.40;2.70;;;11.90;79.30;;;;;;4958461;29;20038;-76
2023/04/02 05:30:20;;;;;;;6.10;3.17;;;11.90;79.20;;;;;;4962542;28;20035;-76
2023/04/02 05:32:52;;;;;;;9.02;3.65;;;11.80;79.20;;;;;;4961942;28;20541;-76
2023/04/02 05:35:21;;;;;;;8.77;3.72;;;11.80;79.10;;;;;;4978837;28;20029;-76
2023/04/02 05:37:47;;;;;;;10.57;4.25;;;11.80;79.10;;;;;;4974482;28;20130;-76
2023/04/02 05:40:42;;;;;;;6.78;3.03;;;11.80;79.00;;;;;;4961332;28;20482;-76
2023/04/02 05:43:12;;;;;;;4.30;2.97;;;11.80;78.80;;;;;;4961629;28;20035;-76
2023/04/02 05:45:41;;;;;;;11.00;3.67;;;11.70;78.90;;;;;;4959234;29;20415;-76
2023/04/02 05:48:16;;;;;;;8.55;3.42;;;11.70;78.70;;;;;;4941471;29;20043;-76
2023/04/02 05:50:46;;;;;;;5.65;2.75;;;11.70;78.40;;;;;;4959230;29;20024;-76
2023/04/02 05:53:24;;;;;;;3.50;2.50;;;11.70;78.40;;;;;;4934869;28;20046;-77
2023/04/02 05:56:11;;;;;;;5.70;3.08;;;11.70;77.90;;;;;;4973647;28;20038;-76
2023/04/02 05:59:07;;;;;;;3.88;2.20;;;11.70;77.60;;;;;;4958579;28;20113;-74
2023/04/02 06:01:46;;;;;;;4.32;2.40;;;11.70;77.50;;;;;;4957313;28;20030;-75
2023/04/02 06:04:30;;;;;;;5.32;3.53;;;11.60;77.10;;;;;;4958223;28;20042;-75
2023/04/02 06:07:03;;;;;;;8.20;2.53;;;11.70;77.00;;;;;;4975214;28;20126;-75
2023/04/02 06:09:50;;;;;;;5.25;2.55;;;11.70;76.60;;;;;;4974777;28;20034;-78
2023/04/02 06:12:34;;;;;;;3.75;2.40;;;11.70;76.60;;;;;;4976573;28;20442;-75
2023/04/02 06:15:00;;;;;;;7.43;2.38;;;11.80;76.20;;;;;;4970295;28;20023;-75
2023/04/02 06:17:26;;;;;;;5.90;2.80;;;11.70;76.10;;;;;;4980849;28;20034;-74
2023/04/02 06:19:55;;;;;;;4.82;2.80;;;11.70;75.90;;;;;;4976496;28;20101;-76
2023/04/02 06:22:33;;;;;;;5.65;2.30;;;11.80;75.80;;;;;;4976314;28;20086;-76
2023/04/02 06:25:28;;;;;;;4.55;2.47;;;11.90;75.50;;;;;;4957348;28;20066;-76
2023/04/02 06:27:56;;;;;;;4.93;2.85;;;11.90;75.10;;;;;;4952635;28;20038;-76
2023/04/02 06:30:29;;;;;;;6.80;3.70;;;11.90;74.80;;;;;;4955913;29;20082;-75
2023/04/02 06:32:55;;;;;;;5.75;2.40;;;11.90;74.50;;;;;;4967232;28;20027;-76
2023/04/02 06:35:21;;;;;;;3.30;2.20;;;11.80;74.50;;;;;;4960067;28;20026;-76
2023/04/02 06:37:50;;;;;;;8.75;2.80;;;11.80;74.10;;;;;;4958625;28;20031;-76
2023/04/02 06:40:32;;;;;;;4.28;1.95;;;11.80;74.00;;;;;;4976930;28;20031;-77
2023/04/02 06:43:02;;;;;;;5.97;2.13;;;11.70;73.60;;;;;;4974287;28;20057;-79
2023/04/02 06:45:33;;;;;;;5.60;2.03;;;11.60;73.40;;;;;;4976074;28;20030;-77
2023/04/02 06:48:01;;;;;;;3.55;2.45;;;11.60;73.70;;;;;;4973169;28;20057;-85
2023/04/02 06:50:39;;;;;;;4.32;2.10;;;11.60;73.30;;;;;;4970195;28;20027;-80
2023/04/02 06:53:10;;;;;;;3.83;2.17;;;11.60;73.50;;;;;;4968871;28;20115;-80
2023/04/02 06:56:00;;;;;;;3.78;2.20;;;11.60;73.40;;;;;;4973095;28;20033;-80
2023/04/02 06:58:25;;;;;;;2.63;2.00;;;11.60;73.40;;;;;;4968358;28;20030;-80
2023/04/02 07:00:51;;;;;;;3.50;2.65;;;11.70;73.40;;;;;;4966858;28;20270;-80
2023/04/02 07:03:27;;;;;;;4.57;3.00;;;11.70;73.40;;;;;;4968183;28;20037;-80
2023/04/02 07:05:53;;;;;;;3.70;2.17;;;11.80;73.30;;;;;;4951410;28;20027;-80
2023/04/02 07:08:19;;;;;;;5.00;2.47;;;11.80;73.50;;;;;;4939117;28;20077;-82
2023/04/02 07:10:45;;;;;;;3.25;2.63;;;11.70;73.30;;;;;;4958662;28;20023;-81
2023/04/02 07:13:20;;;;;;;8.77;2.88;;;11.70;73.60;;;;;;4957917;28;20030;-84
2023/04/02 07:15:48;;;;;;;7.47;2.20;;;11.80;73.70;;;;;;4969866;28;20026;-81
2023/04/02 07:18:29;;;;;;;7.05;2.25;;;11.80;73.80;;;;;;4975950;28;20027;-79
2023/04/02 07:20:54;;;;;;;;;;;11.80;73.70;;;;;;4988857;28;20042;-79
2023/04/02 07:23:21;;;;;;;4.88;1.98;;;11.80;73.80;;;;;;4962638;28;20292;-81
2023/04/02 07:25:49;;;;;;;3.70;2.42;;;11.90;74.00;;;;;;4951891;28;20035;-79
2023/04/02 07:28:15;;;;;;;5.38;2.10;;;11.90;73.60;;;;;;4975500;28;20029;-81
2023/04/02 07:30:42;;;;;;;7.45;2.28;;;11.90;73.80;;;;;;4966286;28;20047;-79
2023/04/02 07:33:16;;;;;;;4.05;2.10;;;12.00;73.90;;;;;;4970048;28;20138;-78
2023/04/02 07:35:42;;;;;;;3.85;2.28;;;12.00;74.00;;;;;;4955839;28;20556;-80
2023/04/02 07:38:08;;;;;;;3.75;2.17;;;11.90;74.10;;;;;;4951230;28;20118;-80
2023/04/02 07:40:34;;;;;;;7.35;2.65;;;12.00;74.20;;;;;;4960067;28;20114;-81
2023/04/02 07:43:12;;;;;;;4.22;2.17;;;12.00;74.20;;;;;;4946477;28;20031;-82
2023/04/02 07:46:08;;;;;;;5.53;2.40;;;12.00;73.90;;;;;;4964660;28;20031;-81
2023/04/02 07:48:40;;;;;;;4.05;2.17;;;12.00;74.30;;;;;;4890550;29;20037;-80
2023/04/02 07:51:20;;;;;;;5.88;2.67;;;12.00;74.40;;;;;;4947953;28;20512;-81
2023/04/02 07:53:48;;;;;;;4.82;2.42;;;12.00;74.20;;;;;;4962497;28;20481;-81
2023/04/02 07:56:16;;;;;;;8.98;3.10;;;12.00;73.90;;;;;;4973174;28;20023;-80
2023/04/02 07:58:42;;;;;;;3.83;2.40;;;12.20;74.20;;;;;;4963858;28;20061;-81
2023/04/02 08:01:18;;;;;;;5.32;2.40;;;12.20;74.00;;;;;;4964263;28;20054;-80
2023/04/02 08:03:45;;;;;;;4.28;2.40;;;12.30;73.80;;;;;;4953058;28;20162;-81
2023/04/02 08:06:11;;;;;;;5.35;2.63;;;12.30;73.60;;;;;;4968607;28;20110;-80
2023/04/02 08:08:37;;;;;;;5.57;2.15;;;12.40;73.50;;;;;;4968461;28;20031;-80
2023/04/02 08:11:03;;;;;;;3.50;2.40;;;12.40;73.50;;;;;;4948020;28;20038;-81
2023/04/02 08:13:30;;;;;;;4.93;2.60;;;12.40;72.90;;;;;;4961152;28;20035;-81
2023/04/02 08:15:58;;;;;;;8.68;2.60;;;12.30;73.20;;;;;;4945047;28;20031;-80
2023/04/02 08:18:24;;;;;;;4.28;2.35;;;12.50;73.40;;;;;;4965662;28;20038;-80
2023/04/02 08:20:51;;;;;;;2.88;1.98;;;12.50;72.90;;;;;;4972670;28;20031;-80
2023/04/02 08:23:17;;;;;;;4.40;2.17;;;12.50;72.60;;;;;;4955232;28;20130;-80
2023/04/02 08:26:17;;;;;;;3.65;2.03;;;12.50;72.50;;;;;;4964345;28;20109;-80
2023/04/02 08:28:43;;;;;;;5.72;2.25;;;12.70;72.50;;;;;;4962657;28;20030;-80
2023/04/02 08:31:09;;;;;;;4.60;2.20;;;12.80;72.20;;;;;;4954866;28;20054;-81
2023/04/02 08:33:35;;;;;;;10.57;2.63;;;12.80;71.30;;;;;;4972128;28;20110;-81
2023/04/02 08:36:01;;;;;;;2.97;2.15;;;13.00;71.40;;;;;;4957092;28;20034;-81
2023/04/02 08:38:27;;;;;;;6.22;2.15;;;13.00;71.20;;;;;;4971374;28;20043;-81
2023/04/02 08:40:58;;;;;;;6.18;2.03;;;13.00;70.80;;;;;;4975580;28;20049;-81
2023/04/02 08:43:37;;;;;;;6.15;2.63;;;12.90;70.80;;;;;;4971441;28;20023;-81
2023/04/02 08:46:25;;;;;;;5.78;2.17;;;13.00;70.70;;;;;;4976148;28;20038;-79
2023/04/02 08:48:56;;;;;;;6.25;1.85;;;13.00;70.70;;;;;;4966061;28;20585;-80
2023/04/02 08:51:25;;;;;;;2.85;1.33;;;13.00;70.70;;;;;;4974211;28;20026;-81
2023/04/02 08:53:55;;;;;;;4.82;2.00;;;13.00;70.10;;;;;;4975827;28;20029;-81
2023/04/02 08:56:42;;;;;;;6.68;2.00;;;13.10;70.30;;;;;;4977117;28;20362;-81
2023/04/02 08:59:41;;;;;;;3.50;1.63;;;13.20;70.10;;;;;;4967432;28;20042;-81
2023/04/02 09:02:12;;;;;;;4.05;1.48;;;13.40;69.20;;;;;;4953973;28;20091;-81
2023/04/02 09:04:40;;;;;;;2.20;1.48;;;13.40;68.40;;;;;;4973746;28;20707;-81
2023/04/02 09:07:14;;;;;;;2.30;1.50;;;13.40;68.60;;;;;;4960234;28;20038;-83
2023/04/02 09:09:40;;;;;;;4.50;1.30;;;13.50;68.40;;;;;;4962243;28;20051;-91
2023/04/02 09:12:22;;;;;;;3.65;1.52;;;13.50;68.10;;;;;;4957612;28;20023;-84
2023/04/02 09:14:57;;;;;;;7.05;1.63;;;13.50;68.10;;;;;;4960370;28;20042;-85
2023/04/02 09:17:25;;;;;;;3.53;1.38;;;13.50;67.90;;;;;;4972612;28;20034;-78
2023/04/02 09:20:04;;;;;;;3.13;1.92;;;13.40;67.40;;;;;;4972570;28;20119;-79
2023/04/02 09:22:33;;;;;;;4.82;1.83;;;13.20;67.40;;;;;;4962114;28;20027;-80
2023/04/02 09:25:03;;;;;;;5.43;1.90;;;13.20;67.30;;;;;;4977461;28;20058;-84
2023/04/02 09:27:31;;;;;;;3.15;1.40;;;13.20;67.60;;;;;;4975657;28;20050;-84
2023/04/02 09:30:23;;;;;;;2.80;1.75;;;13.20;68.00;;;;;;4977112;28;20161;-84
2023/04/02 09:33:07;;;;;;;5.18;2.60;;;13.10;67.90;;;;;;4940414;28;20074;-83
2023/04/02 09:35:52;;;;;;;4.45;1.77;;;13.20;68.20;;;;;;4977138;28;20039;-83
2023/04/02 09:38:23;;;;;;;2.63;1.63;;;13.20;68.40;;;;;;4977484;28;20034;-83
2023/04/02 09:41:03;;;;;;;2.38;1.77;;;13.30;68.20;;;;;;4974345;28;20027;-84
2023/04/02 09:43:34;;;;;;;3.80;2.20;;;13.20;68.40;;;;;;4958879;28;20043;-84
2023/04/02 09:46:12;;;;;;;5.40;2.05;;;13.20;67.90;;;;;;4977493;28;20266;-84
2023/04/02 09:48:43;;;;;;;4.13;2.25;;;13.10;68.40;;;;;;4977031;28;20043;-83
2023/04/02 09:51:20;;;;;;;5.07;2.30;;;13.00;68.40;;;;;;4960301;28;20073;-84
2023/04/02 09:54:03;;;;;;;5.65;1.95;;;12.90;68.50;;;;;;4960626;28;20018;-83
2023/04/02 09:56:35;;;;;;;3.72;1.90;;;12.80;68.40;;;;;;4973166;28;20037;-84
2023/04/02 09:59:17;;;;;;;5.32;1.75;;;12.80;68.00;;;;;;4977491;28;20035;-83
2023/04/02 10:01:46;;;;;;;4.05;1.50;;;12.70;68.40;;;;;;4978118;28;20026;-83
2023/04/02 10:04:45;;;;;;;4.75;1.75;;;12.70;68.50;;;;;;4973097;28;20085;-83
2023/04/02 10:07:36;;;;;;;5.20;1.80;;;12.60;68.70;;;;;;4975666;28;20037;-83
2023/04/02 10:10:42;;;;;;;9.23;2.45;;;12.60;69.40;;;;;;4959608;28;20027;-83
2023/04/02 10:13:23;;;;;;;4.90;2.45;;;12.50;70.10;;;;;;4973739;28;20042;-83
2023/04/02 10:16:04;;;;;;;6.28;2.10;;;12.60;70.30;;;;;;4966290;28;20030;-83
2023/04/02 10:18:48;;;;;;;4.95;2.03;;;12.50;70.20;;;;;;4975829;28;20114;-83
2023/04/02 10:21:22;;;;;;;5.10;2.13;;;12.50;70.50;;;;;;4976224;28;20482;-84
2023/04/02 10:23:48;;;;;;;4.13;1.73;;;12.50;70.60;;;;;;4959856;28;20460;-83
2023/04/02 10:26:45;;;;;;;3.45;1.88;;;12.50;71.00;;;;;;4971837;28;20073;-83
2023/04/02 10:29:26;;;;;;;5.05;2.05;;;12.60;71.30;;;;;;4956538;28;20027;-80
2023/04/02 10:32:03;;;;;;;2.90;1.77;;;12.60;71.10;;;;;;4957930;28;20062;-80
2023/04/02 10:34:53;;;;;;;2.65;1.35;;;12.70;70.50;;;;;;4956677;29;20027;-82
2023/04/02 10:37:37;;;;;;;;;;;12.90;70.20;;;;;;4961849;28;20035;-82
2023/04/02 10:40:23;;;;;;;2.50;1.30;;;13.10;69.50;;;;;;4972397;28;19910;-84
2023/04/02 10:43:08;;;;;;;3.72;1.65;;;13.20;69.30;;;;;;4942230;28;20058;-81
2023/04/02 10:46:21;;;;;;;5.72;1.80;;;13.20;68.80;;;;;;4974457;28;20033;-82
2023/04/02 10:49:20;;;;;;;3.75;1.70;;;13.20;68.50;;;;;;4967804;28;20077;-81
2023/04/02 10:52:02;;;;;;;2.42;1.27;;;13.50;68.60;;;;;;4956097;28;20405;-81
2023/04/02 10:54:35;;;;;;;6.18;1.50;;;13.70;67.90;;;;;;4958767;28;20031;-84
2023/04/02 10:57:36;;;;;;;2.60;1.58;;;13.60;66.90;;;;;;4977260;28;20082;-86
2023/04/02 11:00:17;;;;;;;2.10;1.38;;;13.60;67.30;;;;;;4973352;28;20054;-82
2023/04/02 11:02:57;;;;;;;3.33;1.50;;;13.70;67.00;;;;;;4973217;28;20081;-81
2023/04/02 11:05:43;;;;;;;3.55;1.63;;;13.70;67.10;;;;;;4972817;28;20041;-82
2023/04/02 11:08:36;;;;;;;5.25;2.45;;;13.80;66.00;;;;;;4964977;28;20050;-81
2023/04/02 11:11:08;;;;;;;2.85;1.10;;;13.90;65.60;;;;;;4976352;28;20027;-81
2023/04/02 11:14:00;;;;;;;2.17;1.27;;;14.00;64.70;;;;;;4958086;28;20050;-81
2023/04/02 11:16:26;;;;;;;1.42;1.10;;;13.90;64.80;;;;;;4976593;28;20071;-81
2023/04/02 11:19:31;;;;;;;3.28;1.30;;;13.80;64.70;;;;;;4974353;28;20019;-82
2023/04/02 11:22:00;;;;;;;3.58;1.60;;;13.70;64.80;;;;;;4888594;29;20032;-81
2023/04/02 11:24:43;;;;;;;2.50;1.58;;;13.60;65.20;;;;;;4944282;28;20038;-81
2023/04/02 11:27:13;;;;;;;3.13;1.60;;;13.70;65.20;;;;;;4974233;28;20066;-81
2023/04/02 11:29:50;;;;;;;2.22;1.40;;;13.80;65.30;;;;;;4974102;28;20023;-82
2023/04/02 11:32:26;;;;;;;1.98;1.33;;;14.00;64.80;;;;;;4975024;28;20050;-81
2023/04/02 11:34:52;;;;;;;1.85;1.30;;;13.90;64.50;;;;;;4974589;28;20015;-81
2023/04/02 11:37:38;;;;;;;3.97;1.40;;;14.00;63.70;;;;;;4956025;28;20039;-81
2023/04/02 11:40:40;;;;;;;2.58;1.50;;;14.00;63.60;;;;;;4973111;28;20027;-82
2023/04/02 11:43:34;;;;;;;2.28;1.40;;;14.00;64.10;;;;;;4954859;28;20034;-81
2023/04/02 11:46:15;;;;;;;2.08;1.50;;;13.80;63.50;;;;;;4958167;28;20027;-81
2023/04/02 11:48:41;;;;;;;1.90;1.33;;;13.80;64.30;;;;;;4975753;28;20027;-81
2023/04/02 11:51:22;;;;;;;1.27;0.80;;;13.70;64.60;;;;;;4971985;28;20114;-81
2023/04/02 11:53:57;;;;;;;3.25;1.52;;;13.60;64.10;;;;;;4973994;28;20021;-81
2023/04/02 11:56:37;;;;;;;2.65;1.38;;;13.50;64.40;;;;;;4960028;28;20040;-81
2023/04/02 11:59:34;;;;;;;2.10;1.20;;;13.30;64.80;;;;;;4970257;28;20034;-80
2023/04/02 12:02:22;;;;;;;3.13;1.98;;;13.30;65.20;;;;;;4974748;28;20022;-80
2023/04/02 12:04:55;;;;;;;2.50;1.75;;;13.50;65.30;;;;;;4975277;28;20031;-80
2023/04/02 12:07:33;;;;;;;2.20;1.50;;;13.70;65.10;;;;;;4975471;28;20061;-81
2023/04/02 12:10:14;;;;;;;1.70;1.35;;;13.80;65.00;;;;;;4978175;28;20557;-80
2023/04/02 12:12:41;;;;;;;2.70;1.50;;;13.90;63.70;;;;;;4968882;28;20027;-81
2023/04/02 12:15:30;;;;;;;2.10;1.42;;;14.00;64.10;;;;;;4979655;28;20086;-80
2023/04/02 12:18:15;;;;;;;2.80;1.67;;;14.00;64.50;;;;;;4959622;28;20098;-81
2023/04/02 12:20:46;;;;;;;3.25;1.55;;;14.10;64.60;;;;;;4961058;28;20026;-80
2023/04/02 12:23:18;;;;;;;2.47;1.90;;;14.30;64.00;;;;;;4977896;28;20062;-80
2023/04/02 12:25:53;;;;;;;1.30;1.17;;;14.40;63.80;;;;;;4962246;28;20042;-80
2023/04/02 12:28:21;;;;;;;4.90;1.90;;;14.20;64.10;;;;;;4959910;28;20397;-80
2023/04/02 12:30:48;;;;;;;2.97;2.10;;;14.20;64.20;;;;;;4976620;28;20519;-80
2023/04/02 12:33:29;;;;;;;5.25;1.65;;;14.20;64.50;;;;;;4979547;28;20033;-81
2023/04/02 12:35:57;;;;;;;3.17;1.48;;;14.20;64.00;;;;;;4979285;28;20390;-80
2023/04/02 12:38:26;;;;;;;1.77;1.27;;;14.00;64.10;;;;;;4978267;28;20030;-80
2023/04/02 12:40:58;;;;;;;3.45;1.70;;;14.00;64.30;;;;;;4960733;28;20041;-80
2023/04/02 12:43:35;;;;;;;3.00;1.80;;;14.00;64.50;;;;;;4973320;28;20039;-80
2023/04/02 12:46:06;;;;;;;3.28;1.80;;;14.10;64.40;;;;;;4973761;28;20030;-79
2023/04/02 12:48:34;;;;;;;3.00;1.45;;;14.30;64.10;;;;;;4976629;28;20034;-79
2023/04/02 12:51:01;;;;;;;3.15;1.30;;;14.60;63.90;;;;;;4954896;29;20525;-79
2023/04/02 12:53:27;;;;;;;2.72;1.50;;;14.80;63.10;;;;;;4958340;28;20034;-79
2023/04/02 12:55:53;;;;;;;2.30;1.50;;;14.90;63.20;;;;;;4977366;28;20027;-79
2023/04/02 12:58:39;;;;;;;2.60;1.50;;;14.90;62.40;;;;;;4955792;28;20094;-80
2023/04/02 13:01:10;;;;;;;2.42;1.40;;;14.80;62.50;;;;;;4967138;28;20033;-79
2023/04/02 13:03:36;;;;;;;2.33;1.60;;;14.50;62.30;;;;;;4979035;28;20086;-79
2023/04/02 13:06:02;;;;;;;2.97;1.73;;;14.20;63.30;;;;;;4972513;28;20514;-79
2023/04/02 13:08:32;;;;;;;3.47;2.05;;;14.10;63.90;;;;;;4971134;28;20035;-79
2023/04/02 13:11:03;;;;;;;5.43;2.38;;;14.20;63.80;;;;;;4972906;28;20050;-79
2023/04/02 13:13:33;;;;;;;2.13;1.40;;;14.20;63.30;;;;;;4959309;29;20023;-79
2023/04/02 13:16:05;;;;;;;4.20;2.50;;;14.20;63.60;;;;;;4959105;28;20027;-79
2023/04/02 13:18:34;;;;;;;5.07;2.10;;;14.10;64.00;;;;;;4956982;28;20039;-79
2023/04/02 13:21:16;;;;;;;4.90;2.00;;;14.10;64.00;;;;;;4959174;28;20495;-79
2023/04/02 13:23:42;;;;;;;3.00;1.45;;;14.10;64.50;;;;;;4942196;29;20063;-79
2023/04/02 13:26:21;;;;;;;4.97;1.63;;;14.00;64.30;;;;;;4942502;29;20039;-79
2023/04/02 13:29:08;;;;;;;3.53;1.85;;;13.80;65.00;;;;;;4959634;28;20035;-78
2023/04/02 13:31:34;;;;;;;3.00;1.50;;;13.80;65.10;;;;;;4962571;28;20046;-79
2023/04/02 13:34:00;;;;;;;4.18;2.17;;;13.80;65.20;;;;;;4968003;28;20034;-79
2023/04/02 13:36:28;;;;;;;3.55;1.77;;;13.80;65.90;;;;;;4958727;28;20390;-79
2023/04/02 13:38:54;;;;;;;2.22;1.63;;;13.90;65.60;;;;;;4970124;28;20022;-79
2023/04/02 13:41:26;;;;;;;2.35;1.67;;;14.20;65.40;;;;;;4978357;28;20027;-79
2023/04/02 13:44:00;;;;;;;2.85;1.38;;;14.20;65.00;;;;;;4960823;28;20447;-79
2023/04/02 13:46:28;;;;;;;1.83;1.45;;;14.40;64.70;;;;;;4960681;28;20035;-79
2023/04/02 13:48:55;;;;;;;2.42;2.10;;;14.40;64.70;;;;;;4977773;28;20103;-79
2023/04/02 13:51:50;;;;;;;2.35;1.70;;;14.30;63.90;;;;;;4973730;28;20089;-79
2023/04/02 13:54:22;;;;;;;4.50;2.20;;;14.40;64.00;;;;;;4957339;28;20094;-79
2023/04/02 13:56:48;;;;;;;2.28;1.55;;;14.50;64.00;;;;;;4971361;28;20090;-78
2023/04/02 13:59:14;;;;;;;3.38;1.88;;;14.40;63.40;;;;;;4958857;29;20052;-79
2023/04/02 14:01:42;;;;;;;3.67;1.70;;;14.60;63.30;;;;;;4958886;28;20098;-79
2023/04/02 14:04:12;;;;;;;4.10;1.50;;;14.80;62.50;;;;;;4972997;28;20106;-79
2023/04/02 14:07:03;;;;;;;4.07;1.73;;;15.00;62.90;;;;;;4952739;28;20035;-79
2023/04/02 14:09:31;;;;;;;3.80;1.77;;;14.70;62.50;;;;;;4975830;28;20438;-78
2023/04/02 14:12:25;;;;;;;2.47;1.58;;;14.50;63.00;;;;;;4960028;28;20414;-78
2023/04/02 14:15:01;;;;;;;2.03;1.48;;;14.30;63.70;;;;;;4974409;28;20019;-78
2023/04/02 14:17:48;;;;;;;2.63;1.63;;;14.10;63.70;;;;;;4977962;28;20203;-77
2023/04/02 14:20:17;;;;;;;3.28;1.85;;;14.00;64.30;;;;;;4955353;28;20037;-78
2023/04/02 14:22:51;;;;;;;3.25;2.03;;;13.80;63.90;;;;;;4977970;28;20066;-77
2023/04/02 14:25:37;;;;;;;2.83;1.65;;;13.70;64.50;;;;;;4958352;28;20034;-78
2023/04/02 14:28:22;;;;;;;3.30;1.80;;;13.70;65.00;;;;;;4974771;28;20445;-78
2023/04/02 14:31:19;;;;;;;2.33;1.80;;;13.90;64.70;;;;;;4973716;28;20375;-77
2023/04/02 14:34:04;;;;;;;6.97;2.40;;;14.00;64.50;;;;;;4957961;28;20034;-78
2023/04/02 14:36:49;;;;;;;15.48;2.40;;;14.30;64.30;;;;;;4974457;28;20030;-78
2023/04/02 14:39:37;;;;;;;4.45;2.08;;;14.40;63.50;;;;;;4975677;28;20063;-78
2023/04/02 14:43:03;;;;;;;4.20;2.08;;;14.40;64.00;;;;;;4975685;28;20033;-79
2023/04/02 14:45:34;;;;;;;4.63;1.88;;;14.30;63.80;;;;;;4903515;29;20032;-78
2023/04/02 14:48:06;;;;;;;2.10;1.90;;;14.20;64.00;;;;;;4908828;29;20029;-78
2023/04/02 14:50:38;;;;;;;2.53;1.77;;;14.30;64.00;;;;;;4943908;28;20066;-78
2023/04/02 14:53:16;;;;;;;2.75;1.63;;;14.40;64.20;;;;;;4959987;28;20029;-78
2023/04/02 14:55:45;;;;;;;4.30;1.90;;;14.40;63.70;;;;;;4975196;28;20018;-78
2023/04/02 14:58:27;;;;;;;5.00;2.30;;;14.30;63.90;;;;;;4975672;28;20469;-78
2023/04/02 15:00:59;;;;;;;2.90;1.90;;;14.10;64.20;;;;;;4976590;28;20041;-78
2023/04/02 15:03:30;;;;;;;3.67;1.77;;;13.90;64.80;;;;;;4975184;28;20517;-78
2023/04/02 15:06:26;;;;;;;4.40;1.83;;;13.80;65.30;;;;;;4976667;28;20054;-78
2023/04/02 15:09:01;;;;;;;2.13;1.50;;;13.80;65.30;;;;;;4953226;28;20042;-79
2023/04/02 15:11:35;;;;;;;3.03;1.52;;;13.80;65.50;;;;;;4955771;29;20039;-78
2023/04/02 15:14:02;;;;;;;4.30;2.15;;;13.90;65.60;;;;;;4958027;29;20039;-78
2023/04/02 15:16:28;;;;;;;6.80;2.22;;;14.00;65.20;;;;;;4940742;29;20027;-78
2023/04/02 15:18:59;;;;;;;2.85;1.88;;;14.20;65.10;;;;;;4956262;28;20045;-78
2023/04/02 15:21:53;;;;;;;4.88;1.83;;;14.20;64.40;;;;;;4959761;28;20126;-78
2023/04/02 15:24:25;;;;;;;3.03;1.50;;;14.20;64.40;;;;;;4976712;28;20031;-78
2023/04/02 15:27:02;;;;;;;3.83;1.63;;;14.00;63.90;;;;;;4955040;28;20023;-78
2023/04/02 15:30:07;;;;;;;3.00;1.70;;;13.70;64.10;;;;;;4964357;28;20023;-78
2023/04/02 15:32:33;;;;;;;4.05;1.80;;;13.60;64.70;;;;;;4958474;28;20406;-78
2023/04/02 15:35:04;;;;;;;2.42;1.40;;;13.50;65.10;;;;;;4978167;28;20027;-78
2023/04/02 15:37:55;;;;;;;2.35;1.75;;;13.50;65.20;;;;;;4957271;29;20035;-78
2023/04/02 15:40:25;;;;;;;;;;;13.40;65.40;;;;;;4963436;28;20035;-78
2023/04/02 15:43:05;;;;;;;3.83;1.63;;;13.50;64.80;;;;;;4973750;28;19953;-78
2023/04/02 15:45:53;;;;;;;4.13;1.90;;;13.60;65.00;;;;;;4961131;29;20055;-79
2023/04/02 15:48:40;;;;;;;3.80;1.85;;;13.70;64.60;;;;;;4968230;28;20030;-78
2023/04/02 15:51:19;;;;;;;2.58;1.38;;;13.70;64.00;;;;;;4975420;28;20059;-77
2023/04/02 15:54:00;;;;;;;2.25;1.45;;;13.70;64.10;;;;;;4961681;29;20086;-78
2023/04/02 15:56:59;;;;;;;3.25;1.70;;;13.70;64.20;;;;;;4966510;28;20026;-78
2023/04/02 15:59:43;;;;;;;4.15;1.70;;;13.70;63.40;;;;;;4916942;28;20042;-77
2023/04/02 16:02:36;;;;;;;2.88;1.63;;;13.80;63.10;;;;;;4969513;28;20037;-75
2023/04/02 16:05:13;;;;;;;4.72;2.00;;;13.80;63.20;;;;;;4950216;29;20419;-77
2023/04/02 16:07:42;;;;;;;5.45;2.00;;;13.70;63.00;;;;;;4967073;28;20030;-77
2023/04/02 16:10:35;;;;;;;3.38;1.67;;;13.80;63.30;;;;;;4975176;28;20027;-74
2023/04/02 16:13:18;;;;;;;1.98;1.40;;;13.80;63.60;;;;;;4952350;28;20031;-76
2023/04/02 16:16:06;;;;;;;2.30;1.77;;;13.70;63.40;;;;;;4952991;28;20026;-78
2023/04/02 16:18:32;;;;;;;5.80;2.53;;;13.70;63.40;;;;;;4955169;28;20042;-81
2023/04/02 16:21:01;;;;;;;5.72;1.90;;;13.70;63.10;;;;;;4979726;28;20023;-78
2023/04/02 16:23:38;;;;;;;2.60;1.70;;;13.60;63.80;;;;;;4959590;28;20037;-79
2023/04/02 16:26:16;;;;;;;3.05;1.98;;;13.40;63.50;;;;;;4957053;28;20122;-79
2023/04/02 16:28:50;;;;;;;2.53;1.70;;;13.40;63.90;;;;;;4977685;28;20039;-80
2023/04/02 16:31:45;;;;;;;3.33;1.90;;;13.30;63.60;;;;;;4960096;28;20051;-78
2023/04/02 16:34:16;;;;;;;3.00;1.48;;;13.30;63.90;;;;;;4974360;28;20521;-76
2023/04/02 16:37:10;;;;;;;2.42;1.75;;;13.30;64.40;;;;;;4979395;28;20027;-82
2023/04/02 16:39:35;;;;;;;6.93;2.47;;;13.30;63.90;;;;;;4962083;28;20041;-79
2023/04/02 16:42:43;;;;;;;3.65;2.50;;;13.40;64.10;;;;;;4968771;28;20023;-81
2023/04/02 16:45:09;;;;;;;6.63;2.28;;;13.30;64.10;;;;;;4979475;28;20027;-78
2023/04/02 16:47:40;;;;;;;4.93;2.65;;;13.30;64.30;;;;;;4954938;28;20118;-79
2023/04/02 16:50:28;;;;;;;3.90;2.25;;;13.30;64.70;;;;;;4977891;28;20027;-80
2023/04/02 16:53:46;;;;;;;7.35;3.60;;;13.20;65.10;;;;;;4969530;28;20038;-79
2023/04/02 16:56:44;;;;;;;4.13;2.08;;;13.10;65.30;;;;;;4906307;29;20243;-78
2023/04/02 16:59:39;;;;;;;7.60;2.95;;;13.00;66.10;;;;;;4970214;28;20027;-76
2023/04/02 17:02:40;;;;;;;4.18;2.45;;;13.10;65.90;;;;;;4977804;28;20038;-77
2023/04/02 17:05:41;;;;;;;4.80;2.42;;;13.00;66.30;;;;;;4969529;28;20098;-77
2023/04/02 17:08:23;;;;;;;2.90;2.15;;;13.10;66.30;;;;;;4958637;28;20079;-76
2023/04/02 17:11:04;;;;;;;5.15;2.40;;;13.10;65.90;;;;;;4971433;28;20022;-77
2023/04/02 17:13:49;;;;;;;4.70;2.20;;;13.10;65.90;;;;;;4965263;28;20436;-76
2023/04/02 17:16:25;;;;;;;5.28;2.53;;;13.00;65.70;;;;;;4974453;28;20015;-78
2023/04/02 17:18:56;;;;;;;6.63;2.70;;;12.80;66.30;;;;;;4971189;28;20034;-77
2023/04/02 17:21:27;;;;;;;4.70;2.90;;;12.80;66.80;;;;;;4974788;28;20023;-76
2023/04/02 17:24:16;;;;;;;5.57;2.78;;;12.80;66.90;;;;;;4975499;28;20031;-77
2023/04/02 17:26:48;;;;;;;3.50;1.88;;;12.80;66.70;;;;;;4959302;28;20030;-76
2023/04/02 17:29:20;;;;;;;6.10;2.50;;;12.80;66.20;;;;;;4971808;28;20026;-77
2023/04/02 17:31:48;;;;;;;4.50;1.77;;;12.80;66.20;;;;;;4973268;28;20645;-77
2023/04/02 17:34:21;;;;;;;4.47;2.63;;;12.80;66.10;;;;;;4973158;28;20050;-77
2023/04/02 17:37:15;;;;;;;4.32;2.65;;;12.70;66.20;;;;;;4977488;28;20022;-76
2023/04/02 17:39:52;;;;;;;5.60;1.95;;;12.70;65.90;;;;;;4975343;28;20034;-77
2023/04/02 17:42:35;;;;;;;4.25;2.78;;;12.70;65.80;;;;;;4960470;28;20118;-77
2023/04/02 17:45:10;;;;;;;7.22;2.78;;;12.70;65.90;;;;;;4977303;28;20039;-76
2023/04/02 17:48:03;;;;;;;3.72;2.20;;;12.80;66.00;;;;;;4970048;28;20030;-76
2023/04/02 17:50:52;;;;;;;3.60;2.22;;;12.70;66.00;;;;;;4969161;28;20031;-83
2023/04/02 17:53:51;;;;;;;6.57;2.95;;;12.70;66.10;;;;;;4964669;28;20019;-85
2023/04/02 17:56:51;;;;;;;4.67;2.57;;;12.70;66.40;;;;;;4966574;28;20030;-80
2023/04/02 17:59:38;;;;;;;6.10;2.38;;;12.60;66.10;;;;;;4954784;28;21126;-87
2023/04/02 18:02:44;;;;;;;3.95;1.98;;;12.50;66.10;;;;;;4950152;28;20041;-88
2023/04/02 18:05:26;;;;;;;3.80;2.10;;;12.40;66.60;;;;;;4976902;28;20034;-86
2023/04/02 18:08:11;;;;;;;4.70;2.50;;;12.30;66.80;;;;;;4972373;28;20026;-81
2023/04/02 18:10:39;;;;;;;6.53;3.30;;;12.30;66.80;;;;;;4956939;28;20089;-88
2023/04/02 18:13:34;;;;;;;5.45;2.35;;;12.30;67.10;;;;;;4970065;28;20122;-78